Time;durP1;ratioP1;P1;durP2;ratioP2;P2;SDS_P1;SDS_P2;PMS_P1;PMS_P2;Temp;Humidity;BMP_temperature;BMP_pressure;BME280_temperature;BME280_humidity;BME280_pressure;Samples;Min_cycle;Max_cycle;Signal;HPM_P1;HPM_P2
2022/08/26 00:00:00;;;;;;;0.2;0.2;;;;;;;24.1;100.0;101200;;;;
2022/08/26 00:01:00;;;;;;;0.2;0.2;;;;;;;24.1;100.0;101200;;;;
2022/08/26 00:02:00;;;;;;;0.2;0.2;;;;;;;24.2;100.0;101190;;;;
2022/08/26 00:03:00;;;;;;;0.2;0.2;;;;;;;24.2;100.0;101190;;;;
2022/08/26 00:04:00;;;;;;;0.2;0.2;;;;;;;24.0;100.0;101190;;;;
2022/08/26 00:05:00;;;;;;;0.2;0.2;;;;;;;24.0;100.0;101190;;;;
2022/08/26 00:06:00;;;;;;;0.2;0.2;;;;;;;24.0;100.0;101190;;;;
2022/08/26 00:07:00;;;;;;;0.2;0.2;;;;;;;24.0;100.0;101190;;;;
2022/08/26 00:08:00;;;;;;;0.2;0.2;;;;;;;23.8;100.0;101200;;;;
2022/08/26 00:09:00;;;;;;;0.2;0.2;;;;;;;23.8;100.0;101200;;;;
2022/08/26 00:10:00;;;;;;;0.2;0.2;;;;;;;23.9;100.0;101200;;;;
2022/08/26 00:11:01;;;;;;;0.2;0.2;;;;;;;23.9;100.0;101200;;;;
2022/08/26 00:12:00;;;;;;;0.2;0.2;;;;;;;23.8;100.0;101200;;;;
2022/08/26 00:13:00;;;;;;;0.2;0.2;;;;;;;23.8;100.0;101200;;;;
2022/08/26 00:14:00;;;;;;;0.3;0.3;;;;;;;23.7;100.0;101200;;;;
2022/08/26 00:15:00;;;;;;;0.3;0.3;;;;;;;23.7;100.0;101200;;;;
2022/08/26 00:16:00;;;;;;;0.3;0.3;;;;;;;23.7;100.0;101200;;;;
2022/08/26 00:17:00;;;;;;;0.3;0.3;;;;;;;23.7;100.0;101200;;;;
2022/08/26 00:18:00;;;;;;;0.3;0.3;;;;;;;23.7;100.0;101200;;;;
2022/08/26 00:19:00;;;;;;;0.3;0.3;;;;;;;23.7;100.0;101200;;;;
2022/08/26 00:20:00;;;;;;;0.3;0.3;;;;;;;23.9;100.0;101210;;;;
2022/08/26 00:21:06;;;;;;;0.3;0.3;;;;;;;23.9;100.0;101210;;;;
2022/08/26 00:22:00;;;;;;;0.3;0.3;;;;;;;23.6;100.0;101210;;;;
2022/08/26 00:23:01;;;;;;;0.3;0.3;;;;;;;23.6;100.0;101210;;;;
2022/08/26 00:24:00;;;;;;;0.3;0.3;;;;;;;23.5;100.0;101210;;;;
2022/08/26 00:25:00;;;;;;;0.3;0.3;;;;;;;23.5;100.0;101210;;;;
2022/08/26 00:26:01;;;;;;;0.3;0.3;;;;;;;23.6;100.0;101210;;;;
2022/08/26 00:27:00;;;;;;;0.3;0.3;;;;;;;23.6;100.0;101210;;;;
2022/08/26 00:28:00;;;;;;;0.3;0.3;;;;;;;23.8;100.0;101210;;;;
2022/08/26 00:29:00;;;;;;;0.3;0.3;;;;;;;23.8;100.0;101210;;;;
2022/08/26 00:30:01;;;;;;;0.3;0.3;;;;;;;23.9;100.0;101210;;;;
2022/08/26 00:31:01;;;;;;;0.3;0.3;;;;;;;23.9;100.0;101210;;;;
2022/08/26 00:32:01;;;;;;;0.3;0.3;;;;;;;23.8;100.0;101210;;;;
2022/08/26 00:33:01;;;;;;;0.3;0.3;;;;;;;23.8;100.0;101210;;;;
2022/08/26 00:34:00;;;;;;;0.4;0.4;;;;;;;24.0;100.0;101210;;;;
2022/08/26 00:35:00;;;;;;;0.4;0.4;;;;;;;24.0;100.0;101210;;;;
2022/08/26 00:36:00;;;;;;;0.4;0.4;;;;;;;24.0;100.0;101210;;;;
2022/08/26 00:37:00;;;;;;;0.4;0.4;;;;;;;24.0;100.0;101210;;;;
2022/08/26 00:38:01;;;;;;;0.4;0.4;;;;;;;23.9;100.0;101210;;;;
2022/08/26 00:39:01;;;;;;;0.4;0.4;;;;;;;23.9;100.0;101210;;;;
2022/08/26 00:40:05;;;;;;;0.4;0.4;;;;;;;23.8;100.0;101210;;;;
2022/08/26 00:41:00;;;;;;;0.4;0.4;;;;;;;23.8;100.0;101210;;;;
2022/08/26 00:42:00;;;;;;;0.4;0.4;;;;;;;23.7;100.0;101210;;;;
2022/08/26 00:43:00;;;;;;;0.4;0.4;;;;;;;23.7;100.0;101210;;;;
2022/08/26 00:44:00;;;;;;;0.4;0.4;;;;;;;23.5;100.0;101210;;;;
2022/08/26 00:45:00;;;;;;;0.4;0.4;;;;;;;23.5;100.0;101210;;;;
2022/08/26 00:46:05;;;;;;;0.4;0.4;;;;;;;23.7;100.0;101210;;;;
2022/08/26 00:47:02;;;;;;;0.4;0.4;;;;;;;23.7;100.0;101210;;;;
2022/08/26 00:48:03;;;;;;;0.4;0.4;;;;;;;23.8;100.0;101210;;;;
2022/08/26 00:49:12;;;;;;;0.4;0.4;;;;;;;23.8;100.0;101210;;;;
2022/08/26 00:50:01;;;;;;;0.4;0.4;;;;;;;23.8;100.0;101210;;;;
2022/08/26 00:51:04;;;;;;;0.4;0.4;;;;;;;23.8;100.0;101210;;;;
2022/08/26 00:52:01;;;;;;;0.4;0.4;;;;;;;23.4;100.0;101210;;;;
2022/08/26 00:53:02;;;;;;;0.4;0.4;;;;;;;23.4;100.0;101210;;;;
2022/08/26 00:54:03;;;;;;;0.1;0.1;;;;;;;23.8;100.0;101210;;;;
2022/08/26 00:55:03;;;;;;;0.1;0.1;;;;;;;23.8;100.0;101210;;;;
2022/08/26 00:56:00;;;;;;;0.1;0.1;;;;;;;23.8;100.0;101210;;;;
2022/08/26 00:57:04;;;;;;;0.1;0.1;;;;;;;23.8;100.0;101210;;;;
2022/08/26 00:58:01;;;;;;;0.1;0.1;;;;;;;23.7;100.0;101210;;;;
2022/08/26 00:59:06;;;;;;;0.1;0.1;;;;;;;23.7;100.0;101210;;;;
2022/08/26 01:00:01;;;;;;;0.1;0.1;;;;;;;23.6;100.0;101210;;;;
2022/08/26 01:01:00;;;;;;;0.1;0.1;;;;;;;23.6;100.0;101210;;;;
2022/08/26 01:02:03;;;;;;;0.1;0.1;;;;;;;23.6;100.0;101210;;;;
2022/08/26 01:03:01;;;;;;;0.1;0.1;;;;;;;23.6;100.0;101210;;;;
2022/08/26 01:04:00;;;;;;;0.1;0.1;;;;;;;23.5;100.0;101210;;;;
2022/08/26 01:05:03;;;;;;;0.1;0.1;;;;;;;23.5;100.0;101210;;;;
2022/08/26 01:06:01;;;;;;;0.1;0.1;;;;;;;23.5;100.0;101220;;;;
2022/08/26 01:07:01;;;;;;;0.1;0.1;;;;;;;23.5;100.0;101220;;;;
2022/08/26 01:08:04;;;;;;;0.1;0.1;;;;;;;23.6;100.0;101210;;;;
2022/08/26 01:09:00;;;;;;;0.1;0.1;;;;;;;23.6;100.0;101210;;;;
2022/08/26 01:10:03;;;;;;;0.1;0.1;;;;;;;23.5;100.0;101210;;;;
2022/08/26 01:11:01;;;;;;;0.1;0.1;;;;;;;23.5;100.0;101210;;;;
2022/08/26 01:12:01;;;;;;;0.1;0.1;;;;;;;23.6;100.0;101210;;;;
2022/08/26 01:13:03;;;;;;;0.1;0.1;;;;;;;23.6;100.0;101210;;;;
2022/08/26 01:14:02;;;;;;;0.2;0.2;;;;;;;23.5;100.0;101210;;;;
2022/08/26 01:15:01;;;;;;;0.2;0.2;;;;;;;23.5;100.0;101210;;;;
2022/08/26 01:16:02;;;;;;;0.2;0.2;;;;;;;23.5;100.0;101220;;;;
2022/08/26 01:17:00;;;;;;;0.2;0.2;;;;;;;23.5;100.0;101220;;;;
2022/08/26 01:18:02;;;;;;;0.2;0.2;;;;;;;23.4;100.0;101210;;;;
2022/08/26 01:19:06;;;;;;;0.2;0.2;;;;;;;23.4;100.0;101210;;;;
2022/08/26 01:20:06;;;;;;;0.2;0.2;;;;;;;23.3;100.0;101220;;;;
2022/08/26 01:21:03;;;;;;;0.2;0.2;;;;;;;23.3;100.0;101220;;;;
2022/08/26 01:22:04;;;;;;;0.2;0.2;;;;;;;23.5;100.0;101220;;;;
2022/08/26 01:23:03;;;;;;;0.2;0.2;;;;;;;23.5;100.0;101220;;;;
2022/08/26 01:24:00;;;;;;;0.2;0.2;;;;;;;23.5;100.0;101210;;;;
2022/08/26 01:25:03;;;;;;;0.2;0.2;;;;;;;23.5;100.0;101210;;;;
2022/08/26 01:26:05;;;;;;;0.2;0.2;;;;;;;23.3;100.0;101210;;;;
2022/08/26 01:27:04;;;;;;;0.2;0.2;;;;;;;23.3;100.0;101210;;;;
2022/08/26 01:28:01;;;;;;;0.2;0.2;;;;;;;23.2;100.0;101220;;;;
2022/08/26 01:29:01;;;;;;;0.2;0.2;;;;;;;23.2;100.0;101220;;;;
2022/08/26 01:30:02;;;;;;;0.2;0.2;;;;;;;23.3;100.0;101220;;;;
2022/08/26 01:31:01;;;;;;;0.2;0.2;;;;;;;23.3;100.0;101220;;;;
2022/08/26 01:32:05;;;;;;;0.2;0.2;;;;;;;23.3;100.0;101210;;;;
2022/08/26 01:33:02;;;;;;;0.2;0.2;;;;;;;23.3;100.0;101210;;;;
2022/08/26 01:34:10;;;;;;;0.1;0.1;;;;;;;23.4;100.0;101220;;;;
2022/08/26 01:35:01;;;;;;;0.1;0.1;;;;;;;23.4;100.0;101220;;;;
2022/08/26 01:36:00;;;;;;;0.1;0.1;;;;;;;23.3;100.0;101220;;;;
2022/08/26 01:37:06;;;;;;;0.1;0.1;;;;;;;23.3;100.0;101220;;;;
2022/08/26 01:38:01;;;;;;;0.1;0.1;;;;;;;23.5;100.0;101220;;;;
2022/08/26 01:39:00;;;;;;;0.1;0.1;;;;;;;23.5;100.0;101220;;;;
2022/08/26 01:40:00;;;;;;;0.1;0.1;;;;;;;23.4;100.0;101210;;;;
2022/08/26 01:41:01;;;;;;;0.1;0.1;;;;;;;23.4;100.0;101210;;;;
2022/08/26 01:42:03;;;;;;;0.1;0.1;;;;;;;23.5;100.0;101210;;;;
2022/08/26 01:43:00;;;;;;;0.1;0.1;;;;;;;23.5;100.0;101210;;;;
2022/08/26 01:44:01;;;;;;;0.1;0.1;;;;;;;23.4;100.0;101220;;;;
2022/08/26 01:45:04;;;;;;;0.1;0.1;;;;;;;23.4;100.0;101220;;;;
2022/08/26 01:46:01;;;;;;;0.1;0.1;;;;;;;23.3;100.0;101220;;;;
2022/08/26 01:47:00;;;;;;;0.1;0.1;;;;;;;23.3;100.0;101220;;;;
2022/08/26 01:48:02;;;;;;;0.1;0.1;;;;;;;23.4;100.0;101220;;;;
2022/08/26 01:49:02;;;;;;;0.1;0.1;;;;;;;23.4;100.0;101220;;;;
2022/08/26 01:50:03;;;;;;;0.1;0.1;;;;;;;23.2;100.0;101220;;;;
2022/08/26 01:51:02;;;;;;;0.1;0.1;;;;;;;23.2;100.0;101220;;;;
2022/08/26 01:52:03;;;;;;;0.1;0.1;;;;;;;23.3;100.0;101220;;;;
2022/08/26 01:53:02;;;;;;;0.1;0.1;;;;;;;23.3;100.0;101220;;;;
2022/08/26 01:54:00;;;;;;;0.1;0.1;;;;;;;23.3;100.0;101220;;;;
2022/08/26 01:55:00;;;;;;;0.1;0.1;;;;;;;23.3;100.0;101220;;;;
2022/08/26 01:56:03;;;;;;;0.1;0.1;;;;;;;23.3;100.0;101220;;;;
2022/08/26 01:57:02;;;;;;;0.1;0.1;;;;;;;23.3;100.0;101220;;;;
2022/08/26 01:58:03;;;;;;;0.1;0.1;;;;;;;23.2;100.0;101220;;;;
2022/08/26 01:59:02;;;;;;;0.1;0.1;;;;;;;23.2;100.0;101220;;;;
2022/08/26 02:00:00;;;;;;;0.1;0.1;;;;;;;23.3;100.0;101220;;;;
2022/08/26 02:01:02;;;;;;;0.1;0.1;;;;;;;23.3;100.0;101220;;;;
2022/08/26 02:02:00;;;;;;;0.1;0.1;;;;;;;23.2;100.0;101210;;;;
2022/08/26 02:04:09;;;;;;;0.1;0.1;;;;;;;23.2;100.0;101210;;;;
2022/08/26 02:05:03;;;;;;;0.1;0.1;;;;;;;23.2;100.0;101210;;;;
2022/08/26 02:06:03;;;;;;;0.1;0.1;;;;;;;23.2;100.0;101210;;;;
2022/08/26 02:07:02;;;;;;;0.1;0.1;;;;;;;23.2;100.0;101210;;;;
2022/08/26 02:08:03;;;;;;;0.1;0.1;;;;;;;23.1;100.0;101210;;;;
2022/08/26 02:09:01;;;;;;;0.1;0.1;;;;;;;23.1;100.0;101210;;;;
2022/08/26 02:10:00;;;;;;;0.1;0.1;;;;;;;23.2;100.0;101220;;;;
2022/08/26 02:11:00;;;;;;;0.1;0.1;;;;;;;23.2;100.0;101220;;;;
2022/08/26 02:12:01;;;;;;;0.1;0.1;;;;;;;23.1;100.0;101220;;;;
2022/08/26 02:13:00;;;;;;;0.1;0.1;;;;;;;23.1;100.0;101220;;;;
2022/08/26 02:14:03;;;;;;;0.1;0.1;;;;;;;23.1;100.0;101220;;;;
2022/08/26 02:15:05;;;;;;;0.1;0.1;;;;;;;23.1;100.0;101220;;;;
2022/08/26 02:16:02;;;;;;;0.1;0.1;;;;;;;23.2;100.0;101220;;;;
2022/08/26 02:17:02;;;;;;;0.1;0.1;;;;;;;23.2;100.0;101220;;;;
2022/08/26 02:18:01;;;;;;;0.1;0.1;;;;;;;23.2;100.0;101220;;;;
2022/08/26 02:19:00;;;;;;;0.1;0.1;;;;;;;23.2;100.0;101220;;;;
2022/08/26 02:20:01;;;;;;;0.1;0.1;;;;;;;23.2;100.0;101220;;;;
2022/08/26 02:21:00;;;;;;;0.1;0.1;;;;;;;23.2;100.0;101220;;;;
2022/08/26 02:22:03;;;;;;;0.1;0.1;;;;;;;23.3;100.0;101220;;;;
2022/08/26 02:23:00;;;;;;;0.1;0.1;;;;;;;23.3;100.0;101220;;;;
2022/08/26 02:24:10;;;;;;;0.1;0.1;;;;;;;23.1;100.0;101220;;;;
2022/08/26 02:25:08;;;;;;;0.1;0.1;;;;;;;23.1;100.0;101220;;;;
2022/08/26 02:26:10;;;;;;;0.1;0.1;;;;;;;23.0;100.0;101220;;;;
2022/08/26 02:27:00;;;;;;;0.1;0.1;;;;;;;23.0;100.0;101220;;;;
2022/08/26 02:28:00;;;;;;;0.1;0.1;;;;;;;22.9;100.0;101210;;;;
2022/08/26 02:29:02;;;;;;;0.1;0.1;;;;;;;22.9;100.0;101210;;;;
2022/08/26 02:30:03;;;;;;;0.1;0.1;;;;;;;23.0;100.0;101210;;;;
2022/08/26 02:31:02;;;;;;;0.1;0.1;;;;;;;23.0;100.0;101210;;;;
2022/08/26 02:32:00;;;;;;;0.1;0.1;;;;;;;23.0;100.0;101220;;;;
2022/08/26 02:33:04;;;;;;;0.1;0.1;;;;;;;23.0;100.0;101220;;;;
2022/08/26 02:34:10;;;;;;;0.1;0.1;;;;;;;23.2;100.0;101220;;;;
2022/08/26 02:35:00;;;;;;;0.1;0.1;;;;;;;23.2;100.0;101220;;;;
2022/08/26 02:36:00;;;;;;;0.1;0.1;;;;;;;23.1;100.0;101220;;;;
2022/08/26 02:37:01;;;;;;;0.1;0.1;;;;;;;23.1;100.0;101220;;;;
2022/08/26 02:38:01;;;;;;;0.1;0.1;;;;;;;23.1;100.0;101220;;;;
2022/08/26 02:39:00;;;;;;;0.1;0.1;;;;;;;23.1;100.0;101220;;;;
2022/08/26 02:40:00;;;;;;;0.1;0.1;;;;;;;23.1;100.0;101220;;;;
2022/08/26 02:41:00;;;;;;;0.1;0.1;;;;;;;23.1;100.0;101220;;;;
2022/08/26 02:42:00;;;;;;;0.1;0.1;;;;;;;23.1;100.0;101220;;;;
2022/08/26 02:43:02;;;;;;;0.1;0.1;;;;;;;23.1;100.0;101220;;;;
2022/08/26 02:44:00;;;;;;;0.1;0.1;;;;;;;23.1;100.0;101230;;;;
2022/08/26 02:45:00;;;;;;;0.1;0.1;;;;;;;23.1;100.0;101230;;;;
2022/08/26 02:46:02;;;;;;;0.1;0.1;;;;;;;23.0;100.0;101230;;;;
2022/08/26 02:47:00;;;;;;;0.1;0.1;;;;;;;23.0;100.0;101230;;;;
2022/08/26 02:48:08;;;;;;;0.1;0.1;;;;;;;22.9;100.0;101230;;;;
2022/08/26 02:49:00;;;;;;;0.1;0.1;;;;;;;22.9;100.0;101230;;;;
2022/08/26 02:50:00;;;;;;;0.1;0.1;;;;;;;22.9;100.0;101230;;;;
2022/08/26 02:51:00;;;;;;;0.1;0.1;;;;;;;22.9;100.0;101230;;;;
2022/08/26 02:52:02;;;;;;;0.1;0.1;;;;;;;23.0;100.0;101220;;;;
2022/08/26 02:53:00;;;;;;;0.1;0.1;;;;;;;23.0;100.0;101220;;;;
2022/08/26 02:54:01;;;;;;;0.1;0.1;;;;;;;23.1;100.0;101230;;;;
2022/08/26 02:55:00;;;;;;;0.1;0.1;;;;;;;23.1;100.0;101230;;;;
2022/08/26 02:56:00;;;;;;;0.1;0.1;;;;;;;22.9;100.0;101230;;;;
2022/08/26 02:57:00;;;;;;;0.1;0.1;;;;;;;22.9;100.0;101230;;;;
2022/08/26 02:58:00;;;;;;;0.1;0.1;;;;;;;23.0;100.0;101230;;;;
2022/08/26 02:59:00;;;;;;;0.1;0.1;;;;;;;23.0;100.0;101230;;;;
2022/08/26 03:00:01;;;;;;;0.1;0.1;;;;;;;23.0;100.0;101230;;;;
2022/08/26 03:01:02;;;;;;;0.1;0.1;;;;;;;23.0;100.0;101230;;;;
2022/08/26 03:02:00;;;;;;;0.1;0.1;;;;;;;23.0;100.0;101240;;;;
2022/08/26 03:03:00;;;;;;;0.1;0.1;;;;;;;23.0;100.0;101240;;;;
2022/08/26 03:04:01;;;;;;;0.1;0.1;;;;;;;23.1;100.0;101230;;;;
2022/08/26 03:05:02;;;;;;;0.1;0.1;;;;;;;23.1;100.0;101230;;;;
2022/08/26 03:06:00;;;;;;;0.1;0.1;;;;;;;23.1;100.0;101230;;;;
2022/08/26 03:07:00;;;;;;;0.1;0.1;;;;;;;23.1;100.0;101230;;;;
2022/08/26 03:08:00;;;;;;;0.1;0.1;;;;;;;23.0;100.0;101230;;;;
2022/08/26 03:09:00;;;;;;;0.1;0.1;;;;;;;23.0;100.0;101230;;;;
2022/08/26 03:10:00;;;;;;;0.1;0.1;;;;;;;23.0;100.0;101230;;;;
2022/08/26 03:11:01;;;;;;;0.1;0.1;;;;;;;23.0;100.0;101230;;;;
2022/08/26 03:12:00;;;;;;;0.1;0.1;;;;;;;23.1;100.0;101230;;;;
2022/08/26 03:13:05;;;;;;;0.1;0.1;;;;;;;23.1;100.0;101230;;;;
2022/08/26 03:14:03;;;;;;;0.1;0.1;;;;;;;23.1;100.0;101230;;;;
2022/08/26 03:15:00;;;;;;;0.1;0.1;;;;;;;23.1;100.0;101230;;;;
2022/08/26 03:16:00;;;;;;;0.1;0.1;;;;;;;23.2;100.0;101230;;;;
2022/08/26 03:17:00;;;;;;;0.1;0.1;;;;;;;23.2;100.0;101230;;;;
2022/08/26 03:18:00;;;;;;;0.1;0.1;;;;;;;23.0;100.0;101230;;;;
2022/08/26 03:19:01;;;;;;;0.1;0.1;;;;;;;23.0;100.0;101230;;;;
2022/08/26 03:20:00;;;;;;;0.1;0.1;;;;;;;23.1;100.0;101230;;;;
2022/08/26 03:21:05;;;;;;;0.1;0.1;;;;;;;23.1;100.0;101230;;;;
2022/08/26 03:22:01;;;;;;;0.1;0.1;;;;;;;23.0;100.0;101220;;;;
2022/08/26 03:23:00;;;;;;;0.1;0.1;;;;;;;23.0;100.0;101220;;;;
2022/08/26 03:24:00;;;;;;;0.1;0.1;;;;;;;23.0;100.0;101230;;;;
2022/08/26 03:25:02;;;;;;;0.1;0.1;;;;;;;23.0;100.0;101230;;;;
2022/08/26 03:26:00;;;;;;;0.1;0.1;;;;;;;23.0;100.0;101230;;;;
2022/08/26 03:27:06;;;;;;;0.1;0.1;;;;;;;23.0;100.0;101230;;;;
2022/08/26 03:28:00;;;;;;;0.1;0.1;;;;;;;22.9;100.0;101230;;;;
2022/08/26 03:31:00;;;;;;;0.1;0.1;;;;;;;23.0;100.0;101230;;;;
2022/08/26 03:32:00;;;;;;;0.1;0.1;;;;;;;23.0;100.0;101230;;;;
2022/08/26 03:33:00;;;;;;;0.2;0.2;;;;;;;23.0;100.0;101230;;;;
2022/08/26 03:34:00;;;;;;;0.2;0.2;;;;;;;23.0;100.0;101230;;;;
2022/08/26 03:35:00;;;;;;;0.2;0.2;;;;;;;23.0;100.0;101230;;;;
2022/08/26 03:36:02;;;;;;;0.2;0.2;;;;;;;23.1;100.0;101230;;;;
2022/08/26 03:37:00;;;;;;;0.2;0.2;;;;;;;23.1;100.0;101230;;;;
2022/08/26 03:38:02;;;;;;;0.2;0.2;;;;;;;23.1;100.0;101240;;;;
2022/08/26 03:39:00;;;;;;;0.2;0.2;;;;;;;23.1;100.0;101240;;;;
2022/08/26 03:40:00;;;;;;;0.2;0.2;;;;;;;23.0;100.0;101240;;;;
2022/08/26 03:41:01;;;;;;;0.2;0.2;;;;;;;23.0;100.0;101240;;;;
2022/08/26 03:42:00;;;;;;;0.2;0.2;;;;;;;22.9;100.0;101230;;;;
2022/08/26 03:43:02;;;;;;;0.2;0.2;;;;;;;22.9;100.0;101230;;;;
2022/08/26 03:44:02;;;;;;;0.2;0.2;;;;;;;23.0;100.0;101230;;;;
2022/08/26 03:45:00;;;;;;;0.2;0.2;;;;;;;23.0;100.0;101230;;;;
2022/08/26 03:46:05;;;;;;;0.2;0.2;;;;;;;22.9;100.0;101240;;;;
2022/08/26 03:47:00;;;;;;;0.2;0.2;;;;;;;22.9;100.0;101240;;;;
2022/08/26 03:48:02;;;;;;;0.2;0.2;;;;;;;23.0;100.0;101240;;;;
2022/08/26 03:49:01;;;;;;;0.2;0.2;;;;;;;23.0;100.0;101240;;;;
2022/08/26 03:50:00;;;;;;;0.2;0.2;;;;;;;22.9;100.0;101240;;;;
2022/08/26 03:51:03;;;;;;;0.2;0.2;;;;;;;22.9;100.0;101240;;;;
2022/08/26 03:52:00;;;;;;;0.2;0.2;;;;;;;22.9;100.0;101240;;;;
2022/08/26 03:53:00;;;;;;;0.1;0.1;;;;;;;22.9;100.0;101240;;;;
2022/08/26 03:54:01;;;;;;;0.1;0.1;;;;;;;23.0;100.0;101240;;;;
2022/08/26 03:55:00;;;;;;;0.1;0.1;;;;;;;23.0;100.0;101240;;;;
2022/08/26 03:56:00;;;;;;;0.1;0.1;;;;;;;23.0;100.0;101240;;;;
2022/08/26 03:57:00;;;;;;;0.1;0.1;;;;;;;23.0;100.0;101240;;;;
2022/08/26 03:58:01;;;;;;;0.1;0.1;;;;;;;22.8;100.0;101240;;;;
2022/08/26 03:59:01;;;;;;;0.1;0.1;;;;;;;22.8;100.0;101240;;;;
2022/08/26 04:00:00;;;;;;;0.1;0.1;;;;;;;22.8;100.0;101240;;;;
2022/08/26 04:01:00;;;;;;;0.1;0.1;;;;;;;22.8;100.0;101240;;;;
2022/08/26 04:02:00;;;;;;;0.1;0.1;;;;;;;22.7;100.0;101240;;;;
2022/08/26 04:03:00;;;;;;;0.1;0.1;;;;;;;22.7;100.0;101240;;;;
2022/08/26 04:04:01;;;;;;;0.1;0.1;;;;;;;22.7;100.0;101240;;;;
2022/08/26 04:05:00;;;;;;;0.1;0.1;;;;;;;22.7;100.0;101240;;;;
2022/08/26 04:06:00;;;;;;;0.1;0.1;;;;;;;22.8;100.0;101240;;;;
2022/08/26 04:07:00;;;;;;;0.1;0.1;;;;;;;22.8;100.0;101240;;;;
2022/08/26 04:08:00;;;;;;;0.1;0.1;;;;;;;22.7;100.0;101240;;;;
2022/08/26 04:09:04;;;;;;;0.1;0.1;;;;;;;22.7;100.0;101240;;;;
2022/08/26 04:10:00;;;;;;;0.1;0.1;;;;;;;22.7;100.0;101240;;;;
2022/08/26 04:11:00;;;;;;;0.1;0.1;;;;;;;22.7;100.0;101240;;;;
2022/08/26 04:12:00;;;;;;;0.1;0.1;;;;;;;22.5;100.0;101230;;;;
2022/08/26 04:13:01;;;;;;;0.1;0.1;;;;;;;22.5;100.0;101230;;;;
2022/08/26 04:14:02;;;;;;;0.1;0.1;;;;;;;22.6;100.0;101240;;;;
2022/08/26 04:15:00;;;;;;;0.1;0.1;;;;;;;22.6;100.0;101240;;;;
2022/08/26 04:16:00;;;;;;;0.1;0.1;;;;;;;22.6;100.0;101240;;;;
2022/08/26 04:17:01;;;;;;;0.1;0.1;;;;;;;22.6;100.0;101240;;;;
2022/08/26 04:18:00;;;;;;;0.1;0.1;;;;;;;22.5;100.0;101230;;;;
2022/08/26 04:19:01;;;;;;;0.1;0.1;;;;;;;22.5;100.0;101230;;;;
2022/08/26 04:20:00;;;;;;;0.1;0.1;;;;;;;22.6;100.0;101240;;;;
2022/08/26 04:21:00;;;;;;;0.1;0.1;;;;;;;22.6;100.0;101240;;;;
2022/08/26 04:22:01;;;;;;;0.1;0.1;;;;;;;22.8;100.0;101230;;;;
2022/08/26 04:23:00;;;;;;;0.1;0.1;;;;;;;22.8;100.0;101230;;;;
2022/08/26 04:24:03;;;;;;;0.1;0.1;;;;;;;22.8;100.0;101230;;;;
2022/08/26 04:25:00;;;;;;;0.1;0.1;;;;;;;22.8;100.0;101230;;;;
2022/08/26 04:26:00;;;;;;;0.1;0.1;;;;;;;22.7;100.0;101230;;;;
2022/08/26 04:27:02;;;;;;;0.1;0.1;;;;;;;22.7;100.0;101230;;;;
2022/08/26 04:28:00;;;;;;;0.1;0.1;;;;;;;22.7;100.0;101230;;;;
2022/08/26 04:29:00;;;;;;;0.1;0.1;;;;;;;22.7;100.0;101230;;;;
2022/08/26 04:30:00;;;;;;;0.1;0.1;;;;;;;22.7;100.0;101230;;;;
2022/08/26 04:31:00;;;;;;;0.1;0.1;;;;;;;22.7;100.0;101230;;;;
2022/08/26 04:32:01;;;;;;;0.1;0.1;;;;;;;22.8;100.0;101230;;;;
2022/08/26 04:33:03;;;;;;;0.1;0.1;;;;;;;22.8;100.0;101230;;;;
2022/08/26 04:34:01;;;;;;;0.1;0.1;;;;;;;22.8;100.0;101230;;;;
2022/08/26 04:35:02;;;;;;;0.1;0.1;;;;;;;22.8;100.0;101230;;;;
2022/08/26 04:36:01;;;;;;;0.1;0.1;;;;;;;22.8;100.0;101230;;;;
2022/08/26 04:37:00;;;;;;;0.1;0.1;;;;;;;22.8;100.0;101230;;;;
2022/08/26 04:38:00;;;;;;;0.1;0.1;;;;;;;22.7;100.0;101230;;;;
2022/08/26 04:39:01;;;;;;;0.1;0.1;;;;;;;22.7;100.0;101230;;;;
2022/08/26 04:40:00;;;;;;;0.1;0.1;;;;;;;22.5;100.0;101230;;;;
2022/08/26 04:41:02;;;;;;;0.1;0.1;;;;;;;22.5;100.0;101230;;;;
2022/08/26 04:42:01;;;;;;;0.1;0.1;;;;;;;22.7;100.0;101230;;;;
2022/08/26 04:43:00;;;;;;;0.1;0.1;;;;;;;22.7;100.0;101230;;;;
2022/08/26 04:44:01;;;;;;;0.1;0.1;;;;;;;22.8;100.0;101230;;;;
2022/08/26 04:45:00;;;;;;;0.1;0.1;;;;;;;22.8;100.0;101230;;;;
2022/08/26 04:46:01;;;;;;;0.1;0.1;;;;;;;22.8;100.0;101240;;;;
2022/08/26 04:47:00;;;;;;;0.1;0.1;;;;;;;22.8;100.0;101240;;;;
2022/08/26 04:48:00;;;;;;;0.1;0.1;;;;;;;22.8;100.0;101250;;;;
2022/08/26 04:49:00;;;;;;;0.1;0.1;;;;;;;22.8;100.0;101250;;;;
2022/08/26 04:50:02;;;;;;;0.1;0.1;;;;;;;22.8;100.0;101250;;;;
2022/08/26 04:51:00;;;;;;;0.1;0.1;;;;;;;22.8;100.0;101250;;;;
2022/08/26 04:52:00;;;;;;;0.1;0.1;;;;;;;22.9;100.0;101250;;;;
2022/08/26 04:53:00;;;;;;;0.1;0.1;;;;;;;22.9;100.0;101250;;;;
2022/08/26 04:54:00;;;;;;;0.1;0.1;;;;;;;22.8;100.0;101250;;;;
2022/08/26 04:55:00;;;;;;;0.1;0.1;;;;;;;22.8;100.0;101250;;;;
2022/08/26 04:56:00;;;;;;;0.1;0.1;;;;;;;22.7;100.0;101250;;;;
2022/08/26 04:57:00;;;;;;;0.1;0.1;;;;;;;22.7;100.0;101250;;;;
2022/08/26 04:58:00;;;;;;;0.1;0.1;;;;;;;22.7;100.0;101250;;;;
2022/08/26 04:59:00;;;;;;;0.1;0.1;;;;;;;22.7;100.0;101250;;;;
2022/08/26 05:00:00;;;;;;;0.1;0.1;;;;;;;22.8;100.0;101250;;;;
2022/08/26 05:01:00;;;;;;;0.1;0.1;;;;;;;22.8;100.0;101250;;;;
2022/08/26 05:02:01;;;;;;;0.1;0.1;;;;;;;22.8;100.0;101250;;;;
2022/08/26 05:03:00;;;;;;;0.1;0.1;;;;;;;22.8;100.0;101250;;;;
2022/08/26 05:04:04;;;;;;;0.1;0.1;;;;;;;22.9;100.0;101250;;;;
2022/08/26 05:05:00;;;;;;;0.1;0.1;;;;;;;22.9;100.0;101250;;;;
2022/08/26 05:06:03;;;;;;;0.1;0.1;;;;;;;22.8;100.0;101250;;;;
2022/08/26 05:07:04;;;;;;;0.1;0.1;;;;;;;22.8;100.0;101250;;;;
2022/08/26 05:08:00;;;;;;;0.1;0.1;;;;;;;22.7;100.0;101250;;;;
2022/08/26 05:09:02;;;;;;;0.1;0.1;;;;;;;22.7;100.0;101250;;;;
2022/08/26 05:10:01;;;;;;;0.1;0.1;;;;;;;22.8;100.0;101260;;;;
2022/08/26 05:11:02;;;;;;;0.1;0.1;;;;;;;22.8;100.0;101260;;;;
2022/08/26 05:12:00;;;;;;;0.1;0.1;;;;;;;22.7;100.0;101260;;;;
2022/08/26 05:13:02;;;;;;;0.1;0.1;;;;;;;22.7;100.0;101260;;;;
2022/08/26 05:14:04;;;;;;;0.1;0.1;;;;;;;22.9;100.0;101260;;;;
2022/08/26 05:15:00;;;;;;;0.1;0.1;;;;;;;22.9;100.0;101260;;;;
2022/08/26 05:16:03;;;;;;;0.1;0.1;;;;;;;22.8;100.0;101260;;;;
2022/08/26 05:17:00;;;;;;;0.1;0.1;;;;;;;22.8;100.0;101260;;;;
2022/08/26 05:18:02;;;;;;;0.1;0.1;;;;;;;22.9;100.0;101260;;;;
2022/08/26 05:19:00;;;;;;;0.1;0.1;;;;;;;22.9;100.0;101260;;;;
2022/08/26 05:20:00;;;;;;;0.1;0.1;;;;;;;22.8;100.0;101260;;;;
2022/08/26 05:21:01;;;;;;;0.1;0.1;;;;;;;22.8;100.0;101260;;;;
2022/08/26 05:22:00;;;;;;;0.1;0.1;;;;;;;22.6;100.0;101260;;;;
2022/08/26 05:23:00;;;;;;;0.1;0.1;;;;;;;22.6;100.0;101260;;;;
2022/08/26 05:24:00;;;;;;;0.1;0.1;;;;;;;22.6;100.0;101260;;;;
2022/08/26 05:25:00;;;;;;;0.1;0.1;;;;;;;22.6;100.0;101260;;;;
2022/08/26 05:26:00;;;;;;;0.1;0.1;;;;;;;22.7;100.0;101260;;;;
2022/08/26 05:27:01;;;;;;;0.1;0.1;;;;;;;22.7;100.0;101260;;;;
2022/08/26 05:28:00;;;;;;;0.1;0.1;;;;;;;22.8;100.0;101260;;;;
2022/08/26 05:29:00;;;;;;;0.1;0.1;;;;;;;22.8;100.0;101260;;;;
2022/08/26 05:30:01;;;;;;;0.1;0.1;;;;;;;22.8;100.0;101260;;;;
2022/08/26 05:31:00;;;;;;;0.1;0.1;;;;;;;22.8;100.0;101260;;;;
2022/08/26 05:32:00;;;;;;;0.1;0.1;;;;;;;22.8;100.0;101260;;;;
2022/08/26 05:33:00;;;;;;;0.1;0.1;;;;;;;22.8;100.0;101260;;;;
2022/08/26 05:34:04;;;;;;;0.1;0.1;;;;;;;22.9;100.0;101250;;;;
2022/08/26 05:35:00;;;;;;;0.1;0.1;;;;;;;22.9;100.0;101250;;;;
2022/08/26 05:36:05;;;;;;;0.1;0.1;;;;;;;22.8;100.0;101260;;;;
2022/08/26 05:37:00;;;;;;;0.1;0.1;;;;;;;22.8;100.0;101260;;;;
2022/08/26 05:38:00;;;;;;;0.1;0.1;;;;;;;22.6;100.0;101260;;;;
2022/08/26 05:39:02;;;;;;;0.1;0.1;;;;;;;22.6;100.0;101260;;;;
2022/08/26 05:40:01;;;;;;;0.1;0.1;;;;;;;22.8;100.0;101260;;;;
2022/08/26 05:41:00;;;;;;;0.1;0.1;;;;;;;22.8;100.0;101260;;;;
2022/08/26 05:42:00;;;;;;;0.1;0.1;;;;;;;22.9;100.0;101260;;;;
2022/08/26 05:43:03;;;;;;;0.1;0.1;;;;;;;22.9;100.0;101260;;;;
2022/08/26 05:44:00;;;;;;;0.1;0.1;;;;;;;22.8;100.0;101270;;;;
2022/08/26 05:45:00;;;;;;;0.1;0.1;;;;;;;22.8;100.0;101270;;;;
2022/08/26 05:46:06;;;;;;;0.1;0.1;;;;;;;22.8;100.0;101270;;;;
2022/08/26 05:47:01;;;;;;;0.1;0.1;;;;;;;22.8;100.0;101270;;;;
2022/08/26 05:48:00;;;;;;;0.1;0.1;;;;;;;22.9;100.0;101270;;;;
2022/08/26 05:49:00;;;;;;;0.1;0.1;;;;;;;22.9;100.0;101270;;;;
2022/08/26 05:50:04;;;;;;;0.1;0.1;;;;;;;22.9;100.0;101280;;;;
2022/08/26 05:51:02;;;;;;;0.1;0.1;;;;;;;22.9;100.0;101280;;;;
2022/08/26 05:52:00;;;;;;;0.1;0.1;;;;;;;22.8;100.0;101270;;;;
2022/08/26 05:53:00;;;;;;;0.1;0.1;;;;;;;22.8;100.0;101270;;;;
2022/08/26 05:54:00;;;;;;;0.1;0.1;;;;;;;22.8;100.0;101270;;;;
2022/08/26 05:55:00;;;;;;;0.1;0.1;;;;;;;22.8;100.0;101270;;;;
2022/08/26 05:56:01;;;;;;;0.1;0.1;;;;;;;22.8;100.0;101270;;;;
2022/08/26 05:57:00;;;;;;;0.1;0.1;;;;;;;22.8;100.0;101270;;;;
2022/08/26 05:58:02;;;;;;;0.1;0.1;;;;;;;23.0;100.0;101270;;;;
2022/08/26 05:59:01;;;;;;;0.1;0.1;;;;;;;23.0;100.0;101270;;;;
2022/08/26 06:00:01;;;;;;;0.1;0.1;;;;;;;23.0;100.0;101280;;;;
2022/08/26 06:01:02;;;;;;;0.1;0.1;;;;;;;23.0;100.0;101280;;;;
2022/08/26 06:02:00;;;;;;;0.1;0.1;;;;;;;22.9;100.0;101280;;;;
2022/08/26 06:03:01;;;;;;;0.1;0.1;;;;;;;22.9;100.0;101280;;;;
2022/08/26 06:04:02;;;;;;;0.1;0.1;;;;;;;22.9;100.0;101280;;;;
2022/08/26 06:05:00;;;;;;;0.1;0.1;;;;;;;22.9;100.0;101280;;;;
2022/08/26 06:06:10;;;;;;;0.1;0.1;;;;;;;22.9;100.0;101280;;;;
2022/08/26 06:07:00;;;;;;;0.1;0.1;;;;;;;22.9;100.0;101280;;;;
2022/08/26 06:09:02;;;;;;;0.1;0.1;;;;;;;23.0;100.0;101280;;;;
2022/08/26 06:10:10;;;;;;;0.1;0.1;;;;;;;23.0;100.0;101280;;;;
2022/08/26 06:11:02;;;;;;;0.1;0.1;;;;;;;23.0;100.0;101280;;;;
2022/08/26 06:12:01;;;;;;;0.1;0.1;;;;;;;23.0;100.0;101290;;;;
2022/08/26 06:13:09;;;;;;;0.1;0.1;;;;;;;23.0;100.0;101290;;;;
2022/08/26 06:14:04;;;;;;;0.1;0.1;;;;;;;23.0;100.0;101290;;;;
2022/08/26 06:15:04;;;;;;;0.1;0.1;;;;;;;23.0;100.0;101290;;;;
2022/08/26 06:16:02;;;;;;;0.1;0.1;;;;;;;23.0;100.0;101290;;;;
2022/08/26 06:17:00;;;;;;;0.1;0.1;;;;;;;23.0;100.0;101290;;;;
2022/08/26 06:18:00;;;;;;;0.1;0.1;;;;;;;23.1;100.0;101300;;;;
2022/08/26 06:19:01;;;;;;;0.1;0.1;;;;;;;23.1;100.0;101300;;;;
2022/08/26 06:20:01;;;;;;;0.1;0.1;;;;;;;23.1;100.0;101300;;;;
2022/08/26 06:21:01;;;;;;;0.1;0.1;;;;;;;23.1;100.0;101300;;;;
2022/08/26 06:25:36;;;;;;;0.1;0.1;;;;;;;23.1;100.0;101300;;;;
2022/08/26 06:26:00;;;;;;;0.1;0.1;;;;;;;23.2;100.0;101300;;;;
2022/08/26 06:27:02;;;;;;;0.1;0.1;;;;;;;23.2;100.0;101300;;;;
2022/08/26 06:28:01;;;;;;;0.1;0.1;;;;;;;23.1;100.0;101300;;;;
2022/08/26 06:29:01;;;;;;;0.1;0.1;;;;;;;23.1;100.0;101300;;;;